createdAt,value
2023-04-30T00:02:37.079Z,8.26
2023-04-30T00:05:43.769Z,8.31
2023-04-30T00:08:49.348Z,8.10
2023-04-30T00:11:56.043Z,8.06
2023-04-30T00:15:01.777Z,7.94
2023-04-30T00:18:11.271Z,7.90
2023-04-30T00:21:17.002Z,7.93
2023-04-30T00:24:23.297Z,7.88
2023-04-30T00:27:28.817Z,7.97
2023-04-30T00:30:35.485Z,7.87
2023-04-30T00:33:43.783Z,7.83
2023-04-30T00:36:50.821Z,7.84
2023-04-30T00:39:56.699Z,7.86
2023-04-30T00:43:03.498Z,7.78
2023-04-30T00:46:09.253Z,7.74
2023-04-30T00:49:18.598Z,7.74
2023-04-30T00:52:24.241Z,7.79
2023-04-30T00:55:30.747Z,7.66
2023-04-30T00:58:37.011Z,7.72
2023-04-30T01:01:44.661Z,7.69
2023-04-30T01:04:55.312Z,7.30
2023-04-30T01:08:01.755Z,7.74
2023-04-30T01:11:25.624Z,7.59
2023-04-30T01:14:43.170Z,7.52
2023-04-30T01:18:00.291Z,7.60
2023-04-30T01:21:11.024Z,7.62
2023-04-30T01:24:53.225Z,7.69
2023-04-30T01:28:09.356Z,7.67
2023-04-30T01:31:21.216Z,7.68
2023-04-30T01:34:27.716Z,7.76
2023-04-30T01:37:54.740Z,7.82
2023-04-30T01:41:25.942Z,7.84
2023-04-30T01:44:57.928Z,7.85
2023-04-30T01:48:23.013Z,7.82
2023-04-30T01:51:42.725Z,7.84
2023-04-30T01:54:59.554Z,7.80
2023-04-30T01:58:12.428Z,7.79
2023-04-30T02:01:34.440Z,7.79
2023-04-30T02:04:40.192Z,7.64
2023-04-30T02:07:52.317Z,7.71
2023-04-30T02:10:57.780Z,7.64
2023-04-30T02:14:04.159Z,7.54
2023-04-30T02:17:13.322Z,7.59
2023-04-30T02:20:19.761Z,7.57
2023-04-30T02:23:25.279Z,7.56
2023-04-30T02:26:31.661Z,7.54
2023-04-30T02:29:37.468Z,7.47
2023-04-30T02:32:46.743Z,7.43
2023-04-30T02:35:52.963Z,7.26
2023-04-30T02:38:59.511Z,7.25
2023-04-30T02:42:07.020Z,7.20
2023-04-30T02:45:13.666Z,7.14
2023-04-30T02:48:21.956Z,7.00
2023-04-30T02:51:28.516Z,6.89
2023-04-30T02:54:34.033Z,6.69
2023-04-30T02:57:40.596Z,6.56
2023-04-30T03:00:46.236Z,6.40
2023-04-30T03:03:55.717Z,6.24
2023-04-30T03:07:01.214Z,6.12
2023-04-30T03:10:08.669Z,6.00
2023-04-30T03:13:14.125Z,5.86
2023-04-30T03:16:22.414Z,5.71
2023-04-30T03:19:30.684Z,5.64
2023-04-30T03:22:37.044Z,5.63
2023-04-30T03:25:42.753Z,5.52
2023-04-30T03:28:49.690Z,5.37
2023-04-30T03:31:55.245Z,5.38
2023-04-30T03:35:04.385Z,5.36
2023-04-30T03:38:09.820Z,5.34
2023-04-30T03:41:16.254Z,5.32
2023-04-30T03:44:21.981Z,5.32
2023-04-30T03:47:28.712Z,5.30
2023-04-30T03:50:37.110Z,5.29
2023-04-30T03:53:43.448Z,5.26
2023-04-30T03:56:49.275Z,5.26
2023-04-30T03:59:55.958Z,5.30
2023-04-30T04:03:02.724Z,5.28
2023-04-30T04:06:12.071Z,5.37
2023-04-30T04:09:17.510Z,5.39
2023-04-30T04:12:23.961Z,5.34
2023-04-30T04:15:29.666Z,5.37
2023-04-30T04:18:36.830Z,5.36
2023-04-30T04:21:45.231Z,5.35
2023-04-30T04:24:55.491Z,5.39
2023-04-30T04:28:02.494Z,5.55
2023-04-30T04:31:09.130Z,5.56
2023-04-30T04:34:16.086Z,5.62
2023-04-30T04:37:25.224Z,5.62
2023-04-30T04:40:31.803Z,5.71
2023-04-30T04:43:38.696Z,5.75
2023-04-30T04:46:44.824Z,5.77
2023-04-30T04:49:51.566Z,5.83
2023-04-30T04:52:59.792Z,5.87
2023-04-30T04:56:06.528Z,5.83
2023-04-30T04:59:12.081Z,5.92
2023-04-30T05:02:18.484Z,6.01
2023-04-30T05:05:24.063Z,6.01
2023-04-30T05:08:33.413Z,6.08
2023-04-30T05:11:41.809Z,6.13
2023-04-30T05:14:49.725Z,6.14
2023-04-30T05:17:56.376Z,6.10
2023-04-30T05:21:08.422Z,6.16
2023-04-30T05:24:16.655Z,6.13
2023-04-30T05:27:23.002Z,6.22
2023-04-30T05:30:28.645Z,6.30
2023-04-30T05:33:37.259Z,6.36
2023-04-30T05:36:44.265Z,6.46
2023-04-30T05:39:54.222Z,6.52
2023-04-30T05:42:59.884Z,6.49
2023-04-30T05:46:06.724Z,6.54
2023-04-30T05:49:12.627Z,6.44
2023-04-30T05:52:19.229Z,6.38
2023-04-30T05:55:27.462Z,6.45
2023-04-30T05:58:33.860Z,6.34
2023-04-30T06:01:39.395Z,6.14
2023-04-30T06:04:46.575Z,6.17
2023-04-30T06:07:52.081Z,6.37
2023-04-30T06:11:01.509Z,6.52
2023-04-30T06:14:08.137Z,6.48
2023-04-30T06:17:14.534Z,6.62
2023-04-30T06:20:20.086Z,6.72
2023-04-30T06:23:26.532Z,6.74
2023-04-30T06:26:37.774Z,6.81
2023-04-30T06:29:45.305Z,6.98
2023-04-30T06:32:50.858Z,7.07
2023-04-30T06:35:57.710Z,6.99
2023-04-30T06:39:03.548Z,6.97
2023-04-30T06:42:12.672Z,7.03
2023-04-30T06:45:20.992Z,6.99
2023-04-30T06:48:27.441Z,6.96
2023-04-30T06:51:32.945Z,7.12
2023-04-30T06:54:39.473Z,7.03
2023-04-30T06:57:48.041Z,6.98
2023-04-30T07:00:54.458Z,6.95
2023-04-30T07:04:00.451Z,6.94
2023-04-30T07:07:06.983Z,6.93
2023-04-30T07:10:13.090Z,7.02
2023-04-30T07:13:22.182Z,7.08
2023-04-30T07:16:29.646Z,7.11
2023-04-30T07:19:36.040Z,7.06
2023-04-30T07:22:41.503Z,7.12
2023-04-30T07:25:47.863Z,7.17
2023-04-30T07:28:56.149Z,7.24
2023-04-30T07:32:03.455Z,7.38
2023-04-30T07:35:09.613Z,7.51
2023-04-30T07:38:17.676Z,7.62
2023-04-30T07:41:23.154Z,7.75
2023-04-30T07:44:32.482Z,7.94
2023-04-30T07:47:38.089Z,7.94
2023-04-30T07:50:44.544Z,8.00
2023-04-30T07:53:50.002Z,7.94
2023-04-30T07:56:56.665Z,7.90
2023-04-30T08:00:05.019Z,7.90
2023-04-30T08:03:20.334Z,7.87
2023-04-30T08:06:25.942Z,7.91
2023-04-30T08:09:33.067Z,7.94
2023-04-30T08:12:40.154Z,8.04
2023-04-30T08:15:49.232Z,8.09
2023-04-30T08:18:54.774Z,8.07
2023-04-30T08:22:02.195Z,8.27
2023-04-30T08:25:08.618Z,8.23
2023-04-30T08:28:14.975Z,8.29
2023-04-30T08:31:23.652Z,8.25
2023-04-30T08:34:29.969Z,8.31
2023-04-30T08:37:35.490Z,8.25
2023-04-30T08:40:51.390Z,8.23
2023-04-30T08:43:59.355Z,8.27
2023-04-30T08:47:13.520Z,8.33
2023-04-30T08:50:19.146Z,8.29
2023-04-30T08:53:25.769Z,8.29
2023-04-30T08:56:31.755Z,8.36
2023-04-30T08:59:38.257Z,8.34
2023-04-30T09:02:47.411Z,8.41
2023-04-30T09:05:54.073Z,8.40
2023-04-30T09:08:59.794Z,8.47
2023-04-30T09:12:19.308Z,8.66
2023-04-30T09:15:25.167Z,8.76
2023-04-30T09:18:42.620Z,8.72
2023-04-30T09:21:48.098Z,8.78
2023-04-30T09:24:55.381Z,8.82
2023-04-30T09:28:12.422Z,8.94
2023-04-30T09:31:24.988Z,9.08
2023-04-30T09:34:38.186Z,9.24
2023-04-30T09:37:44.653Z,9.28
2023-04-30T09:40:50.456Z,9.28
2023-04-30T09:44:05.574Z,9.29
2023-04-30T09:47:16.054Z,9.36
2023-04-30T09:50:22.229Z,9.31
2023-04-30T09:53:29.512Z,9.37
2023-04-30T09:56:41.373Z,9.47
2023-04-30T09:59:52.651Z,9.52
2023-04-30T10:03:00.775Z,9.58
2023-04-30T10:06:07.929Z,9.63
2023-04-30T10:09:16.319Z,9.81
2023-04-30T10:12:29.570Z,9.82
2023-04-30T10:15:47.963Z,9.87
2023-04-30T10:18:57.758Z,9.86
2023-04-30T10:22:04.993Z,9.72
2023-04-30T10:25:13.815Z,9.21
2023-04-30T10:28:20.059Z,9.57
2023-04-30T10:31:30.973Z,9.53
2023-04-30T10:34:56.186Z,9.55
2023-04-30T10:38:16.896Z,9.70
2023-04-30T10:41:24.122Z,9.89
2023-04-30T10:44:30.899Z,10.00
2023-04-30T10:47:40.368Z,10.01
2023-04-30T10:50:49.157Z,10.00
2023-04-30T10:53:58.901Z,9.89
2023-04-30T10:57:17.924Z,9.94
2023-04-30T11:00:31.020Z,9.93
2023-04-30T11:03:43.529Z,9.88
2023-04-30T11:07:11.225Z,9.97
2023-04-30T11:10:19.191Z,9.76
2023-04-30T11:13:24.739Z,9.86
2023-04-30T11:16:33.840Z,9.85
2023-04-30T11:19:51.463Z,9.94
2023-04-30T11:23:25.310Z,9.88
2023-04-30T11:27:07.016Z,9.93
2023-04-30T11:30:17.636Z,9.91
2023-04-30T11:33:24.495Z,9.78
2023-04-30T11:36:35.324Z,9.94
2023-04-30T11:39:43.348Z,9.86
2023-04-30T11:42:51.064Z,9.94
2023-04-30T11:46:10.387Z,9.90
2023-04-30T11:49:16.947Z,9.96
2023-04-30T11:52:29.028Z,10.10
2023-04-30T11:55:35.757Z,10.14
2023-04-30T11:58:42.187Z,10.23
2023-04-30T12:01:49.108Z,10.30
2023-04-30T12:04:54.914Z,10.37
2023-04-30T12:08:08.250Z,10.40
2023-04-30T12:11:27.247Z,10.47
2023-04-30T12:14:36.575Z,10.46
2023-04-30T12:17:42.106Z,10.54
2023-04-30T12:20:48.793Z,10.51
2023-04-30T12:23:57.211Z,10.51
2023-04-30T12:27:03.893Z,10.53
2023-04-30T12:30:13.520Z,10.62
2023-04-30T12:33:22.127Z,10.70
2023-04-30T12:36:36.945Z,10.77
2023-04-30T12:39:47.687Z,10.84
2023-04-30T12:42:53.193Z,10.86
2023-04-30T12:45:59.948Z,10.95
2023-04-30T12:49:05.699Z,10.91
2023-04-30T12:52:15.740Z,10.94
2023-04-30T12:55:27.318Z,10.97
2023-04-30T12:58:35.359Z,10.94
2023-04-30T13:01:48.736Z,11.02
2023-04-30T13:04:57.178Z,11.08
2023-04-30T13:08:06.626Z,11.06
2023-04-30T13:11:15.748Z,11.01
2023-04-30T13:14:21.232Z,11.13
2023-04-30T13:17:27.644Z,11.14
2023-04-30T13:20:33.430Z,11.11
2023-04-30T13:23:51.170Z,11.16
2023-04-30T13:27:01.046Z,11.31
2023-04-30T13:30:08.664Z,11.28
2023-04-30T13:33:14.105Z,11.34
2023-04-30T13:36:21.199Z,11.39
2023-04-30T13:39:26.860Z,11.41
2023-04-30T13:42:36.623Z,11.47
2023-04-30T13:45:42.412Z,11.44
2023-04-30T13:48:50.324Z,11.32
2023-04-30T13:51:55.850Z,11.40
2023-04-30T13:55:02.577Z,9.15
2023-04-30T13:58:10.913Z,11.49
2023-04-30T14:01:17.551Z,11.52
2023-04-30T14:04:23.143Z,11.54
2023-04-30T14:07:29.936Z,11.63
2023-04-30T14:10:35.977Z,11.66
2023-04-30T14:13:45.034Z,11.56
2023-04-30T14:16:50.879Z,11.63
2023-04-30T14:19:57.721Z,11.58
2023-04-30T14:23:04.155Z,11.51
2023-04-30T14:26:10.704Z,11.55
2023-04-30T14:29:21.684Z,11.47
2023-04-30T14:32:30.096Z,11.45
2023-04-30T14:35:36.638Z,11.35
2023-04-30T14:38:42.950Z,11.53
2023-04-30T14:41:48.482Z,11.54
2023-04-30T14:45:00.586Z,11.48
2023-04-30T14:48:06.758Z,11.44
2023-04-30T14:51:13.162Z,11.53
2023-04-30T14:54:18.877Z,11.59
2023-04-30T14:57:25.672Z,11.74
2023-04-30T15:00:34.554Z,11.88
2023-04-30T15:03:41.133Z,11.79
2023-04-30T15:06:47.320Z,11.84
2023-04-30T15:09:53.835Z,11.90
2023-04-30T15:12:59.488Z,11.83
2023-04-30T15:16:10.243Z,11.82
2023-04-30T15:19:16.145Z,11.81
2023-04-30T15:22:22.825Z,11.86
2023-04-30T15:25:28.894Z,11.86
2023-04-30T15:28:36.304Z,12.08
2023-04-30T15:31:44.686Z,12.33
2023-04-30T15:34:51.549Z,12.83
2023-04-30T15:37:57.102Z,13.45
2023-04-30T15:41:03.730Z,14.00
2023-04-30T15:44:09.414Z,14.57
2023-04-30T15:47:18.812Z,14.94
2023-04-30T15:50:24.426Z,15.50
2023-04-30T15:53:30.797Z,15.76
2023-04-30T15:56:37.770Z,16.26
2023-04-30T15:59:44.147Z,16.33
2023-04-30T16:02:52.607Z,16.62
2023-04-30T16:06:00.088Z,16.83
2023-04-30T16:09:08.083Z,17.14
2023-04-30T16:12:14.399Z,17.45
2023-04-30T16:15:20.207Z,17.65
2023-04-30T16:18:30.235Z,17.61
2023-04-30T16:21:38.796Z,17.46
2023-04-30T16:24:45.225Z,17.57
2023-04-30T16:27:50.885Z,17.68
2023-04-30T16:30:57.861Z,17.69
2023-04-30T16:34:06.476Z,17.63
2023-04-30T16:37:13.955Z,17.62
2023-04-30T16:40:21.051Z,17.56
2023-04-30T16:43:29.938Z,17.33
2023-04-30T16:46:35.893Z,17.41
2023-04-30T16:49:45.229Z,17.22
2023-04-30T16:52:50.696Z,17.04
2023-04-30T16:55:57.439Z,16.53
2023-04-30T16:59:03.054Z,15.98
2023-04-30T17:02:10.351Z,15.55
2023-04-30T17:05:19.266Z,14.99
2023-04-30T17:08:26.393Z,14.70
2023-04-30T17:11:31.985Z,14.17
2023-04-30T17:14:38.490Z,13.63
2023-04-30T17:17:44.081Z,13.20
2023-04-30T17:20:54.502Z,12.95
2023-04-30T17:24:00.327Z,12.58
2023-04-30T17:27:06.896Z,12.34
2023-04-30T17:30:13.232Z,12.06
2023-04-30T17:33:20.035Z,11.91
2023-04-30T17:36:28.472Z,11.63
2023-04-30T17:39:35.471Z,11.50
2023-04-30T17:42:41.469Z,11.31
2023-04-30T17:45:47.966Z,11.16
2023-04-30T17:48:53.638Z,10.89
2023-04-30T17:52:02.783Z,10.78
2023-04-30T17:55:12.070Z,10.69
2023-04-30T17:58:18.601Z,10.54
2023-04-30T18:01:25.218Z,10.41
2023-04-30T18:04:31.834Z,10.26
2023-04-30T18:07:40.212Z,10.20
2023-04-30T18:10:47.052Z,10.13
2023-04-30T18:13:52.846Z,10.04
2023-04-30T18:16:59.628Z,9.98
2023-04-30T18:20:05.474Z,9.94
2023-04-30T18:23:16.198Z,9.83
2023-04-30T18:26:24.950Z,9.72
2023-04-30T18:29:31.495Z,9.67
2023-04-30T18:32:37.568Z,9.57
2023-04-30T18:35:46.994Z,9.51
2023-04-30T18:38:55.362Z,9.39
2023-04-30T18:42:02.207Z,9.30
2023-04-30T18:45:10.281Z,9.25
2023-04-30T18:48:19.357Z,9.16
2023-04-30T18:51:25.107Z,9.02
2023-04-30T18:54:34.741Z,8.95
2023-04-30T18:57:42.076Z,8.91
2023-04-30T19:00:49.884Z,8.88
2023-04-30T19:03:55.893Z,8.72
2023-04-30T19:07:04.895Z,8.76
2023-04-30T19:10:14.084Z,8.68
2023-04-30T19:13:20.992Z,8.64
2023-04-30T19:16:30.066Z,8.57
2023-04-30T19:19:39.763Z,8.52
2023-04-30T19:22:50.291Z,8.47
2023-04-30T19:26:00.397Z,8.40
2023-04-30T19:29:06.686Z,8.34
2023-04-30T19:32:13.473Z,8.28
2023-04-30T19:35:19.733Z,8.22
2023-04-30T19:38:26.657Z,8.19
2023-04-30T19:41:35.291Z,8.11
2023-04-30T19:44:44.935Z,8.06
2023-04-30T19:47:51.474Z,7.93
2023-04-30T19:50:58.428Z,7.88
2023-04-30T19:54:04.536Z,7.88
2023-04-30T19:57:14.559Z,7.85
2023-04-30T20:00:20.903Z,7.78
2023-04-30T20:03:28.911Z,7.72
2023-04-30T20:06:35.287Z,7.64
2023-04-30T20:09:42.355Z,7.64
2023-04-30T20:12:54.350Z,7.58
2023-04-30T20:16:01.580Z,7.50
2023-04-30T20:19:07.525Z,7.48
2023-04-30T20:22:14.568Z,7.43
2023-04-30T20:25:20.394Z,7.37
2023-04-30T20:28:31.044Z,7.30
2023-04-30T20:31:37.983Z,7.25
2023-04-30T20:34:44.736Z,7.12
2023-04-30T20:37:55.341Z,7.08
2023-04-30T20:41:02.534Z,7.03
2023-04-30T20:44:11.804Z,6.96
2023-04-30T20:47:18.312Z,6.97
2023-04-30T20:50:24.648Z,6.87
2023-04-30T20:53:31.265Z,6.85
2023-04-30T20:56:37.130Z,6.84
2023-04-30T20:59:46.592Z,6.73
2023-04-30T21:02:52.984Z,6.72
2023-04-30T21:05:59.704Z,6.70
2023-04-30T21:09:06.587Z,6.67
2023-04-30T21:12:13.365Z,6.58
2023-04-30T21:15:22.699Z,6.65
2023-04-30T21:18:29.531Z,6.63
2023-04-30T21:21:35.110Z,6.62
2023-04-30T21:24:42.444Z,6.57
2023-04-30T21:27:48.971Z,6.57
2023-04-30T21:30:58.495Z,6.57
2023-04-30T21:34:04.162Z,6.51
2023-04-30T21:37:10.607Z,6.49
2023-04-30T21:40:16.683Z,6.44
2023-04-30T21:43:23.117Z,6.43
2023-04-30T21:46:31.429Z,6.40
2023-04-30T21:49:38.164Z,6.42
2023-04-30T21:52:43.848Z,6.29
2023-04-30T21:55:50.832Z,6.39
2023-04-30T21:58:56.559Z,6.36
2023-04-30T22:02:20.030Z,6.37
2023-04-30T22:05:28.735Z,6.36
2023-04-30T22:08:35.139Z,6.33
2023-04-30T22:11:40.602Z,6.33
2023-04-30T22:14:46.873Z,6.33
2023-04-30T22:17:55.642Z,6.29
2023-04-30T22:21:02.690Z,6.29
2023-04-30T22:24:09.351Z,6.27
2023-04-30T22:27:16.252Z,6.21
2023-04-30T22:30:22.301Z,6.21
2023-04-30T22:33:31.558Z,6.22
2023-04-30T22:36:37.370Z,6.21
2023-04-30T22:39:43.729Z,6.12
2023-04-30T22:42:50.270Z,6.06
2023-04-30T22:45:57.976Z,6.01
2023-04-30T22:49:06.779Z,5.95
2023-04-30T22:52:14.196Z,5.97
2023-04-30T22:55:20.021Z,5.94
2023-04-30T22:58:26.414Z,5.87
2023-04-30T23:01:31.966Z,5.83
2023-04-30T23:04:41.105Z,5.83
2023-04-30T23:07:49.025Z,5.78
2023-04-30T23:10:56.259Z,5.72
2023-04-30T23:14:01.802Z,5.68
2023-04-30T23:17:08.317Z,5.59
2023-04-30T23:20:17.022Z,5.62
2023-04-30T23:23:23.806Z,5.55
2023-04-30T23:26:29.305Z,5.56
2023-04-30T23:29:36.463Z,5.59
2023-04-30T23:32:42.354Z,5.58
2023-04-30T23:35:51.681Z,5.56
2023-04-30T23:38:57.354Z,5.56
2023-04-30T23:42:04.028Z,5.50
2023-04-30T23:45:11.428Z,5.51
2023-04-30T23:48:18.088Z,5.55
2023-04-30T23:51:26.543Z,5.59
2023-04-30T23:54:33.244Z,5.62
2023-04-30T23:57:38.805Z,5.65
